sensor_id;sensor_type;location;lat;lon;timestamp;pressure;altitude;pressure_sealevel;temperature;humidity
18201;BME280;9226;47.858;9.594;2023-04-29T00:01:44;95002.34;;;14.05;96.13
18201;BME280;9226;47.858;9.594;2023-04-29T00:04:09;95000.44;;;13.98;97.06
18201;BME280;9226;47.858;9.594;2023-04-29T00:06:34;94996.44;;;13.93;97.45
18201;BME280;9226;47.858;9.594;2023-04-29T00:09:00;95002.97;;;13.99;96.97
18201;BME280;9226;47.858;9.594;2023-04-29T00:11:25;94995.50;;;14.03;96.76
18201;BME280;9226;47.858;9.594;2023-04-29T00:13:50;94988.50;;;14.02;96.34
18201;BME280;9226;47.858;9.594;2023-04-29T00:16:16;94990.84;;;14.05;96.34
18201;BME280;9226;47.858;9.594;2023-04-29T00:18:41;94994.34;;;14.05;95.83
18201;BME280;9226;47.858;9.594;2023-04-29T00:21:06;94999.66;;;14.05;95.54
18201;BME280;9226;47.858;9.594;2023-04-29T00:23:33;95005.16;;;14.04;96.35
18201;BME280;9226;47.858;9.594;2023-04-29T00:25:58;94994.19;;;14.07;95.72
18201;BME280;9226;47.858;9.594;2023-04-29T00:28:24;94999.31;;;14.00;96.48
18201;BME280;9226;47.858;9.594;2023-04-29T00:30:49;95000.84;;;14.03;96.01
18201;BME280;9226;47.858;9.594;2023-04-29T00:33:15;94996.19;;;14.05;95.53
18201;BME280;9226;47.858;9.594;2023-04-29T00:35:40;94994.97;;;13.99;95.89
18201;BME280;9226;47.858;9.594;2023-04-29T00:38:06;94990.09;;;13.94;96.46
18201;BME280;9226;47.858;9.594;2023-04-29T00:40:31;94991.06;;;13.85;97.90
18201;BME280;9226;47.858;9.594;2023-04-29T00:42:56;94994.25;;;13.71;99.03
18201;BME280;9226;47.858;9.594;2023-04-29T00:45:22;94984.56;;;13.62;100.00
18201;BME280;9226;47.858;9.594;2023-04-29T00:47:48;94988.91;;;13.71;99.21
18201;BME280;9226;47.858;9.594;2023-04-29T00:50:13;94992.09;;;13.66;99.61
18201;BME280;9226;47.858;9.594;2023-04-29T00:52:39;94988.91;;;13.71;98.70
18201;BME280;9226;47.858;9.594;2023-04-29T00:55:06;94997.63;;;13.73;97.98
18201;BME280;9226;47.858;9.594;2023-04-29T00:57:33;94990.91;;;13.69;98.34
18201;BME280;9226;47.858;9.594;2023-04-29T00:59:59;94995.81;;;13.55;99.57
18201;BME280;9226;47.858;9.594;2023-04-29T01:02:25;94994.59;;;13.50;99.76
18201;BME280;9226;47.858;9.594;2023-04-29T01:04:51;94994.66;;;13.58;99.17
18201;BME280;9226;47.858;9.594;2023-04-29T01:10:13;94985.00;;;13.57;98.54
18201;BME280;9226;47.858;9.594;2023-04-29T01:12:49;94989.34;;;13.58;97.78
18201;BME280;9226;47.858;9.594;2023-04-29T01:16:01;94989.41;;;13.48;98.28
18201;BME280;9226;47.858;9.594;2023-04-29T01:18:42;94987.78;;;13.47;98.01
18201;BME280;9226;47.858;9.594;2023-04-29T01:21:09;94990.09;;;13.50;97.54
18201;BME280;9226;47.858;9.594;2023-04-29T01:23:35;94980.53;;;13.39;98.68
18201;BME280;9226;47.858;9.594;2023-04-29T01:26:00;94985.00;;;13.39;98.60
18201;BME280;9226;47.858;9.594;2023-04-29T01:31:17;94990.34;;;13.39;98.17
18201;BME280;9226;47.858;9.594;2023-04-29T01:34:24;94992.84;;;13.41;97.92
18201;BME280;9226;47.858;9.594;2023-04-29T01:36:58;94995.00;;;13.37;97.79
18201;BME280;9226;47.858;9.594;2023-04-29T01:39:48;94990.63;;;13.36;97.39
18201;BME280;9226;47.858;9.594;2023-04-29T01:42:23;94990.50;;;13.37;97.08
18201;BME280;9226;47.858;9.594;2023-04-29T01:44:54;94987.53;;;13.41;96.74
18201;BME280;9226;47.858;9.594;2023-04-29T01:47:20;94983.06;;;13.41;96.81
18201;BME280;9226;47.858;9.594;2023-04-29T01:49:45;94984.69;;;13.42;96.73
18201;BME280;9226;47.858;9.594;2023-04-29T01:52:11;94975.06;;;13.41;96.60
18201;BME280;9226;47.858;9.594;2023-04-29T01:54:37;94978.69;;;13.40;96.35
18201;BME280;9226;47.858;9.594;2023-04-29T01:57:03;94986.38;;;13.43;96.19
18201;BME280;9226;47.858;9.594;2023-04-29T01:59:28;94983.06;;;13.41;96.14
18201;BME280;9226;47.858;9.594;2023-04-29T02:01:54;94980.28;;;13.33;98.07
18201;BME280;9226;47.858;9.594;2023-04-29T02:04:21;94979.00;;;13.37;97.28
18201;BME280;9226;47.858;9.594;2023-04-29T02:06:46;94981.50;;;13.38;97.12
18201;BME280;9226;47.858;9.594;2023-04-29T02:09:11;94978.69;;;13.40;97.32
18201;BME280;9226;47.858;9.594;2023-04-29T02:11:37;94981.00;;;13.35;97.87
18201;BME280;9226;47.858;9.594;2023-04-29T02:14:02;94985.72;;;13.41;96.96
18201;BME280;9226;47.858;9.594;2023-04-29T02:16:27;94988.38;;;13.41;96.56
18201;BME280;9226;47.858;9.594;2023-04-29T02:18:53;94985.41;;;13.44;96.43
18201;BME280;9226;47.858;9.594;2023-04-29T02:21:18;94987.06;;;13.45;96.02
18201;BME280;9226;47.858;9.594;2023-04-29T02:23:44;94982.75;;;13.44;96.37
18201;BME280;9226;47.858;9.594;2023-04-29T02:26:09;94994.22;;;13.45;95.83
18201;BME280;9226;47.858;9.594;2023-04-29T02:28:35;94988.06;;;13.44;95.88
18201;BME280;9226;47.858;9.594;2023-04-29T02:31:01;94989.56;;;13.47;95.66
18201;BME280;9226;47.858;9.594;2023-04-29T02:33:26;94989.22;;;13.42;96.06
18201;BME280;9226;47.858;9.594;2023-04-29T02:35:52;94989.81;;;13.35;96.34
18201;BME280;9226;47.858;9.594;2023-04-29T02:38:17;94986.59;;;13.32;97.04
18201;BME280;9226;47.858;9.594;2023-04-29T02:40:43;94993.22;;;13.28;97.10
18201;BME280;9226;47.858;9.594;2023-04-29T02:43:09;94999.38;;;13.28;96.97
18201;BME280;9226;47.858;9.594;2023-04-29T02:45:35;95003.72;;;13.29;96.66
18201;BME280;9226;47.858;9.594;2023-04-29T02:48:00;95002.72;;;13.30;96.98
18201;BME280;9226;47.858;9.594;2023-04-29T02:50:26;94996.88;;;13.27;96.98
18201;BME280;9226;47.858;9.594;2023-04-29T02:52:51;94996.53;;;13.30;96.68
18201;BME280;9226;47.858;9.594;2023-04-29T02:55:17;94996.53;;;13.30;96.55
18201;BME280;9226;47.858;9.594;2023-04-29T02:57:42;94992.06;;;13.30;96.24
18201;BME280;9226;47.858;9.594;2023-04-29T03:00:09;94992.06;;;13.30;95.96
18201;BME280;9226;47.858;9.594;2023-04-29T03:02:34;94988.03;;;13.26;96.37
18201;BME280;9226;47.858;9.594;2023-04-29T03:05:00;94990.16;;;13.23;97.07
18201;BME280;9226;47.858;9.594;2023-04-29T03:07:25;94998.31;;;13.21;96.80
18201;BME280;9226;47.858;9.594;2023-04-29T03:09:52;94986.53;;;13.24;96.58
18201;BME280;9226;47.858;9.594;2023-04-29T03:12:17;94995.19;;;13.26;96.44
18201;BME280;9226;47.858;9.594;2023-04-29T03:14:42;94988.88;;;13.27;96.40
18201;BME280;9226;47.858;9.594;2023-04-29T03:17:08;94994.88;;;13.29;96.34
18201;BME280;9226;47.858;9.594;2023-04-29T03:19:33;94987.88;;;13.28;96.51
18201;BME280;9226;47.858;9.594;2023-04-29T03:21:58;94994.88;;;13.29;96.25
18201;BME280;9226;47.858;9.594;2023-04-29T03:24:24;94984.22;;;13.29;95.74
18201;BME280;9226;47.858;9.594;2023-04-29T03:26:49;94979.88;;;13.28;95.78
18201;BME280;9226;47.858;9.594;2023-04-29T03:29:14;94987.88;;;13.28;95.50
18201;BME280;9226;47.858;9.594;2023-04-29T03:31:40;94980.19;;;13.25;95.34
18201;BME280;9226;47.858;9.594;2023-04-29T03:34:05;94985.28;;;13.18;95.80
18201;BME280;9226;47.858;9.594;2023-04-29T03:36:31;94985.16;;;13.19;95.58
18201;BME280;9226;47.858;9.594;2023-04-29T03:38:56;94979.44;;;13.14;96.07
18201;BME280;9226;47.858;9.594;2023-04-29T03:41:22;94984.78;;;13.14;95.54
18201;BME280;9226;47.858;9.594;2023-04-29T03:43:48;94981.03;;;13.07;96.03
18201;BME280;9226;47.858;9.594;2023-04-29T03:46:14;94986.13;;;13.00;96.87
18201;BME280;9226;47.858;9.594;2023-04-29T03:48:39;94985.00;;;13.03;96.38
18201;BME280;9226;47.858;9.594;2023-04-29T03:51:05;94981.63;;;13.01;96.91
18201;BME280;9226;47.858;9.594;2023-04-29T03:53:30;94985.81;;;13.03;96.21
18201;BME280;9226;47.858;9.594;2023-04-29T03:55:57;94984.28;;;13.01;96.22
18201;BME280;9226;47.858;9.594;2023-04-29T03:58:22;94985.97;;;13.02;95.61
18201;BME280;9226;47.858;9.594;2023-04-29T04:00:48;94980.13;;;12.98;95.91
18201;BME280;9226;47.858;9.594;2023-04-29T04:03:13;94977.16;;;13.01;96.64
18201;BME280;9226;47.858;9.594;2023-04-29T04:05:38;94982.94;;;12.97;97.80
18201;BME280;9226;47.858;9.594;2023-04-29T04:08:04;94976.59;;;12.98;98.51
18201;BME280;9226;47.858;9.594;2023-04-29T04:10:29;94980.56;;;12.94;98.95
18201;BME280;9226;47.858;9.594;2023-04-29T04:12:56;94982.94;;;12.97;99.23
18201;BME280;9226;47.858;9.594;2023-04-29T04:15:21;94981.16;;;12.88;100.00
18201;BME280;9226;47.858;9.594;2023-04-29T04:17:46;94972.47;;;12.85;100.00
18201;BME280;9226;47.858;9.594;2023-04-29T04:20:12;94977.81;;;12.85;100.00
18201;BME280;9226;47.858;9.594;2023-04-29T04:22:38;94976.16;;;12.84;100.00
18201;BME280;9226;47.858;9.594;2023-04-29T04:25:03;94979.19;;;12.90;100.00
18201;BME280;9226;47.858;9.594;2023-04-29T04:27:29;94986.88;;;12.93;100.00
18201;BME280;9226;47.858;9.594;2023-04-29T04:29:54;94977.47;;;12.98;100.00
18201;BME280;9226;47.858;9.594;2023-04-29T04:32:21;94987.66;;;13.03;100.00
18201;BME280;9226;47.858;9.594;2023-04-29T04:34:46;94987.72;;;13.11;100.00
18201;BME280;9226;47.858;9.594;2023-04-29T04:37:12;94993.38;;;13.08;100.00
18201;BME280;9226;47.858;9.594;2023-04-29T04:39:38;94990.25;;;13.13;100.00
18201;BME280;9226;47.858;9.594;2023-04-29T04:42:03;94989.66;;;13.19;100.00
18201;BME280;9226;47.858;9.594;2023-04-29T04:44:29;94992.53;;;13.26;100.00
18201;BME280;9226;47.858;9.594;2023-04-29T04:46:54;94992.06;;;13.30;100.00
18201;BME280;9226;47.858;9.594;2023-04-29T04:49:22;94998.63;;;13.36;100.00
18201;BME280;9226;47.858;9.594;2023-04-29T04:51:49;94997.34;;;13.40;100.00
18201;BME280;9226;47.858;9.594;2023-04-29T04:54:15;95003.97;;;13.36;100.00
18201;BME280;9226;47.858;9.594;2023-04-29T04:56:41;95004.97;;;13.35;100.00
18201;BME280;9226;47.858;9.594;2023-04-29T04:59:07;95005.34;;;13.40;100.00
18201;BME280;9226;47.858;9.594;2023-04-29T05:01:32;95012.06;;;13.44;100.00
18201;BME280;9226;47.858;9.594;2023-04-29T05:03:58;95012.13;;;13.52;100.00
18201;BME280;9226;47.858;9.594;2023-04-29T05:06:25;95018.06;;;13.46;100.00
18201;BME280;9226;47.858;9.594;2023-04-29T05:08:50;95023.69;;;13.43;100.00
18201;BME280;9226;47.858;9.594;2023-04-29T05:11:20;95017.38;;;13.44;100.00
18201;BME280;9226;47.858;9.594;2023-04-29T05:13:46;95024.22;;;13.47;100.00
18201;BME280;9226;47.858;9.594;2023-04-29T05:16:12;95026.44;;;13.51;100.00
18201;BME280;9226;47.858;9.594;2023-04-29T05:18:37;95020.69;;;13.64;100.00
18201;BME280;9226;47.858;9.594;2023-04-29T05:21:03;95027.63;;;13.75;100.00
18201;BME280;9226;47.858;9.594;2023-04-29T05:23:28;95028.59;;;13.92;100.00
18201;BME280;9226;47.858;9.594;2023-04-29T05:25:54;95024.16;;;14.01;100.00
18201;BME280;9226;47.858;9.594;2023-04-29T05:28:20;95037.75;;;14.16;100.00
18201;BME280;9226;47.858;9.594;2023-04-29T05:30:45;95049.56;;;14.13;100.00
18201;BME280;9226;47.858;9.594;2023-04-29T05:33:11;95046.09;;;14.13;100.00
18201;BME280;9226;47.858;9.594;2023-04-29T05:35:37;95050.03;;;13.82;100.00
18201;BME280;9226;47.858;9.594;2023-04-29T05:38:02;95059.22;;;13.88;100.00
18201;BME280;9226;47.858;9.594;2023-04-29T05:40:28;95060.06;;;13.88;100.00
18201;BME280;9226;47.858;9.594;2023-04-29T05:42:53;95056.72;;;13.86;100.00
18201;BME280;9226;47.858;9.594;2023-04-29T05:45:19;95053.28;;;13.94;100.00
18201;BME280;9226;47.858;9.594;2023-04-29T05:47:44;95054.09;;;13.94;100.00
18201;BME280;9226;47.858;9.594;2023-04-29T05:50:10;95050.91;;;14.09;100.00
18201;BME280;9226;47.858;9.594;2023-04-29T05:52:36;95058.94;;;14.17;100.00
18201;BME280;9226;47.858;9.594;2023-04-29T05:55:01;95062.69;;;14.33;100.00
18201;BME280;9226;47.858;9.594;2023-04-29T05:57:27;95061.50;;;14.53;100.00
18201;BME280;9226;47.858;9.594;2023-04-29T05:59:52;95056.88;;;14.37;100.00
18201;BME280;9226;47.858;9.594;2023-04-29T06:02:19;95059.44;;;14.65;100.00
18201;BME280;9226;47.858;9.594;2023-04-29T06:04:44;95060.41;;;14.64;99.98
18201;BME280;9226;47.858;9.594;2023-04-29T06:07:11;95067.75;;;14.62;99.04
18201;BME280;9226;47.858;9.594;2023-04-29T06:09:37;95066.59;;;14.64;98.86
18201;BME280;9226;47.858;9.594;2023-04-29T06:12:03;95070.25;;;14.63;98.39
18201;BME280;9226;47.858;9.594;2023-04-29T06:14:28;95062.63;;;14.77;97.63
18201;BME280;9226;47.858;9.594;2023-04-29T06:16:54;95068.84;;;14.77;97.21
18201;BME280;9226;47.858;9.594;2023-04-29T06:19:20;95072.06;;;14.97;98.38
18201;BME280;9226;47.858;9.594;2023-04-29T06:21:45;95074.03;;;15.38;100.00
18201;BME280;9226;47.858;9.594;2023-04-29T06:24:10;95075.16;;;15.78;98.49
18201;BME280;9226;47.858;9.594;2023-04-29T06:26:36;95078.00;;;16.09;95.94
18201;BME280;9226;47.858;9.594;2023-04-29T06:29:01;95079.34;;;15.97;92.25
18201;BME280;9226;47.858;9.594;2023-04-29T06:31:26;95080.81;;;16.57;91.32
18201;BME280;9226;47.858;9.594;2023-04-29T06:33:52;95087.66;;;16.52;87.86
18201;BME280;9226;47.858;9.594;2023-04-29T06:36:17;95094.84;;;16.59;88.66
18201;BME280;9226;47.858;9.594;2023-04-29T06:38:43;95093.94;;;16.92;89.11
18201;BME280;9226;47.858;9.594;2023-04-29T06:41:08;95094.59;;;17.42;86.49
18201;BME280;9226;47.858;9.594;2023-04-29T06:43:34;95094.00;;;17.54;84.85
18201;BME280;9226;47.858;9.594;2023-04-29T06:46:00;95092.50;;;17.83;84.52
18201;BME280;9226;47.858;9.594;2023-04-29T06:48:25;95091.31;;;17.86;82.54
18201;BME280;9226;47.858;9.594;2023-04-29T06:50:56;95095.13;;;17.92;80.61
18201;BME280;9226;47.858;9.594;2023-04-29T06:53:22;95088.97;;;17.83;81.82
18201;BME280;9226;47.858;9.594;2023-04-29T06:55:48;95094.88;;;18.24;84.22
18201;BME280;9226;47.858;9.594;2023-04-29T06:58:17;95100.50;;;18.91;82.53
18201;BME280;9226;47.858;9.594;2023-04-29T07:00:44;95091.78;;;19.19;79.57
18201;BME280;9226;47.858;9.594;2023-04-29T07:03:10;95094.56;;;19.25;77.10
18201;BME280;9226;47.858;9.594;2023-04-29T07:05:36;95097.59;;;19.52;74.64
18201;BME280;9226;47.858;9.594;2023-04-29T07:08:05;95103.91;;;19.44;75.90
18201;BME280;9226;47.858;9.594;2023-04-29T07:10:30;95107.03;;;19.48;76.54
18201;BME280;9226;47.858;9.594;2023-04-29T07:12:56;95103.81;;;19.89;77.43
18201;BME280;9226;47.858;9.594;2023-04-29T07:15:21;95096.19;;;20.57;74.06
18201;BME280;9226;47.858;9.594;2023-04-29T07:17:47;95091.63;;;21.56;72.97
18201;BME280;9226;47.858;9.594;2023-04-29T07:20:12;95091.00;;;22.69;70.03
18201;BME280;9226;47.858;9.594;2023-04-29T07:22:38;95099.09;;;24.20;67.94
18201;BME280;9226;47.858;9.594;2023-04-29T07:25:04;95098.59;;;24.87;64.39
18201;BME280;9226;47.858;9.594;2023-04-29T07:27:32;95097.09;;;25.35;59.92
18201;BME280;9226;47.858;9.594;2023-04-29T07:29:59;95100.72;;;25.28;56.41
18201;BME280;9226;47.858;9.594;2023-04-29T07:32:25;95099.50;;;24.81;56.17
18201;BME280;9226;47.858;9.594;2023-04-29T07:34:51;95102.09;;;24.69;57.42
18201;BME280;9226;47.858;9.594;2023-04-29T07:37:17;95102.53;;;24.91;57.70
18201;BME280;9226;47.858;9.594;2023-04-29T07:39:42;95095.13;;;24.80;57.48
18201;BME280;9226;47.858;9.594;2023-04-29T07:42:07;95091.31;;;25.50;56.38
18201;BME280;9226;47.858;9.594;2023-04-29T07:44:33;95092.47;;;25.91;55.93
18201;BME280;9226;47.858;9.594;2023-04-29T07:46:58;95091.06;;;26.18;52.07
18201;BME280;9226;47.858;9.594;2023-04-29T07:49:24;95090.09;;;25.82;50.00
18201;BME280;9226;47.858;9.594;2023-04-29T07:51:50;95092.38;;;25.49;49.99
18201;BME280;9226;47.858;9.594;2023-04-29T07:54:15;95091.66;;;25.16;49.56
18201;BME280;9226;47.858;9.594;2023-04-29T07:56:41;95102.44;;;25.23;52.92
18201;BME280;9226;47.858;9.594;2023-04-29T07:59:06;95100.44;;;25.55;52.46
18201;BME280;9226;47.858;9.594;2023-04-29T08:01:32;95106.41;;;26.43;53.41
18201;BME280;9226;47.858;9.594;2023-04-29T08:03:57;95094.81;;;27.14;49.85
18201;BME280;9226;47.858;9.594;2023-04-29T08:06:22;95099.41;;;27.60;48.46
18201;BME280;9226;47.858;9.594;2023-04-29T08:08:48;95097.06;;;27.52;44.24
18201;BME280;9226;47.858;9.594;2023-04-29T08:11:20;95097.44;;;27.96;44.74
18201;BME280;9226;47.858;9.594;2023-04-29T08:13:46;95100.41;;;27.83;44.36
18201;BME280;9226;47.858;9.594;2023-04-29T08:16:12;95101.81;;;27.33;43.96
18201;BME280;9226;47.858;9.594;2023-04-29T08:18:38;95093.97;;;27.13;43.93
18201;BME280;9226;47.858;9.594;2023-04-29T08:21:03;95094.69;;;26.73;43.74
18201;BME280;9226;47.858;9.594;2023-04-29T08:23:29;95100.16;;;26.12;43.06
18201;BME280;9226;47.858;9.594;2023-04-29T08:25:54;95103.31;;;25.60;44.82
18201;BME280;9226;47.858;9.594;2023-04-29T08:28:23;95095.97;;;25.42;45.49
18201;BME280;9226;47.858;9.594;2023-04-29T08:30:49;95095.44;;;25.52;46.92
18201;BME280;9226;47.858;9.594;2023-04-29T08:33:14;95094.34;;;25.41;46.02
18201;BME280;9226;47.858;9.594;2023-04-29T08:35:40;95103.34;;;25.17;46.55
18201;BME280;9226;47.858;9.594;2023-04-29T08:38:07;95091.56;;;25.04;47.05
18201;BME280;9226;47.858;9.594;2023-04-29T08:40:41;95089.25;;;24.51;45.04
18201;BME280;9226;47.858;9.594;2023-04-29T08:43:07;95100.88;;;24.65;47.80
18201;BME280;9226;47.858;9.594;2023-04-29T08:45:38;95098.75;;;24.67;47.13
18201;BME280;9226;47.858;9.594;2023-04-29T08:48:05;95095.53;;;24.51;45.54
18201;BME280;9226;47.858;9.594;2023-04-29T08:50:41;95092.97;;;24.63;46.68
18201;BME280;9226;47.858;9.594;2023-04-29T08:53:07;95092.56;;;25.10;46.58
18201;BME280;9226;47.858;9.594;2023-04-29T08:55:44;95091.00;;;25.76;45.11
18201;BME280;9226;47.858;9.594;2023-04-29T08:58:12;95087.19;;;26.14;42.85
18201;BME280;9226;47.858;9.594;2023-04-29T09:00:39;95093.25;;;26.28;42.09
18201;BME280;9226;47.858;9.594;2023-04-29T09:03:33;95097.38;;;26.31;42.33
18201;BME280;9226;47.858;9.594;2023-04-29T09:06:02;95101.19;;;26.30;42.60
18201;BME280;9226;47.858;9.594;2023-04-29T09:08:28;95096.16;;;26.57;42.57
18201;BME280;9226;47.858;9.594;2023-04-29T09:10:54;95082.44;;;26.64;41.00
18201;BME280;9226;47.858;9.594;2023-04-29T09:13:30;95084.75;;;26.90;41.20
18201;BME280;9226;47.858;9.594;2023-04-29T09:15:56;95081.56;;;27.41;40.38
18201;BME280;9226;47.858;9.594;2023-04-29T09:23:48;95080.28;;;28.13;36.64
18201;BME280;9226;47.858;9.594;2023-04-29T09:26:14;95078.56;;;28.36;37.73
18201;BME280;9226;47.858;9.594;2023-04-29T09:28:40;95084.56;;;29.00;38.04
18201;BME280;9226;47.858;9.594;2023-04-29T09:31:10;95080.56;;;29.25;37.26
18201;BME280;9226;47.858;9.594;2023-04-29T09:33:55;95082.50;;;29.25;36.35
18201;BME280;9226;47.858;9.594;2023-04-29T09:36:35;95078.84;;;29.58;35.84
18201;BME280;9226;47.858;9.594;2023-04-29T09:39:02;95078.19;;;29.51;34.93
18201;BME280;9226;47.858;9.594;2023-04-29T09:41:29;95070.56;;;30.19;36.34
18201;BME280;9226;47.858;9.594;2023-04-29T09:44:05;95074.03;;;30.09;32.90
18201;BME280;9226;47.858;9.594;2023-04-29T09:46:32;95073.63;;;29.78;34.97
18201;BME280;9226;47.858;9.594;2023-04-29T09:48:58;95067.44;;;29.83;34.73
18201;BME280;9226;47.858;9.594;2023-04-29T09:51:23;95066.84;;;29.20;34.09
18201;BME280;9226;47.858;9.594;2023-04-29T09:53:49;95066.41;;;29.28;35.60
18201;BME280;9226;47.858;9.594;2023-04-29T09:56:14;95067.44;;;28.88;33.62
18201;BME280;9226;47.858;9.594;2023-04-29T09:58:39;95061.31;;;28.81;34.56
18201;BME280;9226;47.858;9.594;2023-04-29T10:01:05;95060.31;;;29.21;34.84
18201;BME280;9226;47.858;9.594;2023-04-29T10:03:35;95062.00;;;27.85;33.92
18201;BME280;9226;47.858;9.594;2023-04-29T10:06:02;95064.06;;;28.18;35.61
18201;BME280;9226;47.858;9.594;2023-04-29T10:08:29;95071.50;;;27.82;35.79
18201;BME280;9226;47.858;9.594;2023-04-29T10:11:00;95066.84;;;27.18;37.29
18201;BME280;9226;47.858;9.594;2023-04-29T10:13:26;95068.41;;;27.14;38.21
18201;BME280;9226;47.858;9.594;2023-04-29T10:18:37;95059.28;;;27.08;39.02
18201;BME280;9226;47.858;9.594;2023-04-29T10:21:07;95044.75;;;27.03;37.00
18201;BME280;9226;47.858;9.594;2023-04-29T10:23:35;95050.84;;;27.57;36.88
18201;BME280;9226;47.858;9.594;2023-04-29T10:26:01;95047.63;;;27.60;35.11
18201;BME280;9226;47.858;9.594;2023-04-29T10:28:30;95042.59;;;28.10;35.27
18201;BME280;9226;47.858;9.594;2023-04-29T10:30:58;95039.19;;;27.74;34.03
18201;BME280;9226;47.858;9.594;2023-04-29T10:33:25;95038.81;;;27.82;34.84
18201;BME280;9226;47.858;9.594;2023-04-29T10:35:52;95050.75;;;27.40;35.32
18201;BME280;9226;47.858;9.594;2023-04-29T10:38:27;95040.03;;;27.62;35.08
18201;BME280;9226;47.858;9.594;2023-04-29T10:40:55;95033.84;;;27.79;34.52
18201;BME280;9226;47.858;9.594;2023-04-29T10:43:25;95030.84;;;28.21;35.50
18201;BME280;9226;47.858;9.594;2023-04-29T10:46:16;95029.56;;;28.29;34.98
18201;BME280;9226;47.858;9.594;2023-04-29T10:48:43;95030.91;;;28.26;35.58
18201;BME280;9226;47.858;9.594;2023-04-29T10:51:08;95027.75;;;27.89;35.08
18201;BME280;9226;47.858;9.594;2023-04-29T10:53:34;95034.00;;;27.60;35.70
18201;BME280;9226;47.858;9.594;2023-04-29T10:56:06;95028.63;;;27.37;35.54
18201;BME280;9226;47.858;9.594;2023-04-29T10:58:36;95035.25;;;27.17;36.14
18201;BME280;9226;47.858;9.594;2023-04-29T11:01:02;95034.06;;;27.13;36.53
18201;BME280;9226;47.858;9.594;2023-04-29T11:03:50;95031.84;;;26.86;37.36
18201;BME280;9226;47.858;9.594;2023-04-29T11:06:24;95027.00;;;26.65;36.94
18201;BME280;9226;47.858;9.594;2023-04-29T11:09:00;95023.75;;;26.56;38.37
18201;BME280;9226;47.858;9.594;2023-04-29T11:11:42;95005.91;;;26.96;38.66
18201;BME280;9226;47.858;9.594;2023-04-29T11:14:08;94997.75;;;26.96;36.64
18201;BME280;9226;47.858;9.594;2023-04-29T11:16:36;94999.75;;;27.12;35.69
18201;BME280;9226;47.858;9.594;2023-04-29T11:19:05;95006.94;;;27.30;36.27
18201;BME280;9226;47.858;9.594;2023-04-29T11:21:35;95001.78;;;26.81;34.99
18201;BME280;9226;47.858;9.594;2023-04-29T11:24:02;95002.03;;;26.80;36.07
18201;BME280;9226;47.858;9.594;2023-04-29T11:26:31;95006.25;;;27.11;37.62
18201;BME280;9226;47.858;9.594;2023-04-29T11:28:56;95000.22;;;27.33;39.02
18201;BME280;9226;47.858;9.594;2023-04-29T11:31:35;94995.34;;;27.23;38.32
18201;BME280;9226;47.858;9.594;2023-04-29T11:34:02;95000.34;;;27.14;38.26
18201;BME280;9226;47.858;9.594;2023-04-29T11:36:30;94999.38;;;27.08;38.51
18201;BME280;9226;47.858;9.594;2023-04-29T11:38:56;94997.41;;;26.80;37.66
18201;BME280;9226;47.858;9.594;2023-04-29T11:41:22;95001.66;;;26.52;38.54
18201;BME280;9226;47.858;9.594;2023-04-29T11:43:57;95001.16;;;26.32;39.30
18201;BME280;9226;47.858;9.594;2023-04-29T11:46:23;95006.31;;;26.22;39.83
18201;BME280;9226;47.858;9.594;2023-04-29T11:48:49;95002.25;;;26.00;40.64
18201;BME280;9226;47.858;9.594;2023-04-29T11:51:16;95012.38;;;25.63;42.48
18201;BME280;9226;47.858;9.594;2023-04-29T11:53:42;95005.91;;;25.27;43.17
18201;BME280;9226;47.858;9.594;2023-04-29T11:56:08;95008.75;;;24.77;44.02
18201;BME280;9226;47.858;9.594;2023-04-29T11:58:34;95009.88;;;23.87;45.09
18201;BME280;9226;47.858;9.594;2023-04-29T12:01:01;95017.88;;;23.29;46.08
18201;BME280;9226;47.858;9.594;2023-04-29T12:03:27;95018.34;;;23.00;46.38
18201;BME280;9226;47.858;9.594;2023-04-29T12:05:54;95034.56;;;23.00;46.49
18201;BME280;9226;47.858;9.594;2023-04-29T12:08:25;95047.13;;;22.74;48.88
18201;BME280;9226;47.858;9.594;2023-04-29T12:10:51;95055.38;;;21.99;50.63
18201;BME280;9226;47.858;9.594;2023-04-29T12:13:18;95070.09;;;21.28;50.82
18201;BME280;9226;47.858;9.594;2023-04-29T12:15:44;95062.59;;;20.60;50.56
18201;BME280;9226;47.858;9.594;2023-04-29T12:18:12;95062.56;;;20.32;51.26
18201;BME280;9226;47.858;9.594;2023-04-29T12:20:37;95058.06;;;20.11;52.08
18201;BME280;9226;47.858;9.594;2023-04-29T12:23:23;95060.25;;;19.64;55.79
18201;BME280;9226;47.858;9.594;2023-04-29T12:28:17;95046.97;;;19.41;54.68
18201;BME280;9226;47.858;9.594;2023-04-29T12:30:45;95035.59;;;19.24;55.31
18201;BME280;9226;47.858;9.594;2023-04-29T12:33:17;95027.63;;;19.15;56.56
18201;BME280;9226;47.858;9.594;2023-04-29T12:35:42;95030.13;;;19.17;58.22
18201;BME280;9226;47.858;9.594;2023-04-29T12:38:08;95021.19;;;19.31;57.82
18201;BME280;9226;47.858;9.594;2023-04-29T12:40:33;95027.56;;;19.45;59.29
18201;BME280;9226;47.858;9.594;2023-04-29T12:43:06;95028.13;;;19.62;60.69
18201;BME280;9226;47.858;9.594;2023-04-29T12:45:32;95029.50;;;19.73;63.68
18201;BME280;9226;47.858;9.594;2023-04-29T12:47:59;95031.41;;;19.94;63.85
18201;BME280;9226;47.858;9.594;2023-04-29T12:50:35;95024.63;;;20.27;61.97
18201;BME280;9226;47.858;9.594;2023-04-29T12:53:03;95030.03;;;20.55;60.64
18201;BME280;9226;47.858;9.594;2023-04-29T12:55:31;95025.09;;;20.93;59.13
18201;BME280;9226;47.858;9.594;2023-04-29T12:57:56;95021.91;;;21.25;59.74
18201;BME280;9226;47.858;9.594;2023-04-29T13:00:22;95024.69;;;21.45;58.29
18201;BME280;9226;47.858;9.594;2023-04-29T13:02:48;95021.09;;;21.79;57.21
18201;BME280;9226;47.858;9.594;2023-04-29T13:05:13;95023.19;;;22.04;57.17
18201;BME280;9226;47.858;9.594;2023-04-29T13:07:38;95028.59;;;22.17;56.25
18201;BME280;9226;47.858;9.594;2023-04-29T13:10:05;95024.47;;;22.35;55.14
18201;BME280;9226;47.858;9.594;2023-04-29T13:12:31;95028.19;;;22.61;54.86
18201;BME280;9226;47.858;9.594;2023-04-29T13:14:57;95024.25;;;22.56;54.79
18201;BME280;9226;47.858;9.594;2023-04-29T13:17:22;95030.06;;;22.47;52.80
18201;BME280;9226;47.858;9.594;2023-04-29T13:19:48;95020.72;;;22.56;53.45
18201;BME280;9226;47.858;9.594;2023-04-29T13:22:13;95024.25;;;22.63;53.38
18201;BME280;9226;47.858;9.594;2023-04-29T13:24:39;95019.25;;;22.67;52.38
18201;BME280;9226;47.858;9.594;2023-04-29T13:27:04;95023.41;;;22.36;53.47